sensor_id;sensor_type;location;lat;lon;timestamp;temperature;humidity
31677;DHT22;18385;51.572;6.578;2024-03-22T00:01:42;15.10;59.70
31677;DHT22;18385;51.572;6.578;2024-03-22T00:04:08;15.10;59.70
31677;DHT22;18385;51.572;6.578;2024-03-22T00:06:34;15.10;59.70
31677;DHT22;18385;51.572;6.578;2024-03-22T00:08:59;15.20;59.80
31677;DHT22;18385;51.572;6.578;2024-03-22T00:11:25;15.10;59.80
31677;DHT22;18385;51.572;6.578;2024-03-22T00:13:50;15.10;59.80
31677;DHT22;18385;51.572;6.578;2024-03-22T00:16:16;15.10;59.90
31677;DHT22;18385;51.572;6.578;2024-03-22T00:18:42;15.10;59.90
31677;DHT22;18385;51.572;6.578;2024-03-22T00:21:07;15.10;60.60
31677;DHT22;18385;51.572;6.578;2024-03-22T00:23:33;15.10;59.90
31677;DHT22;18385;51.572;6.578;2024-03-22T00:25:59;15.10;60.00
31677;DHT22;18385;51.572;6.578;2024-03-22T00:28:25;15.10;60.00
31677;DHT22;18385;51.572;6.578;2024-03-22T00:30:51;15.10;60.10
31677;DHT22;18385;51.572;6.578;2024-03-22T00:33:16;15.10;60.20
31677;DHT22;18385;51.572;6.578;2024-03-22T00:35:42;15.10;60.20
31677;DHT22;18385;51.572;6.578;2024-03-22T00:38:07;15.10;60.20
31677;DHT22;18385;51.572;6.578;2024-03-22T00:40:33;15.10;60.30
31677;DHT22;18385;51.572;6.578;2024-03-22T00:42:59;15.10;60.40
31677;DHT22;18385;51.572;6.578;2024-03-22T00:45:24;15.10;60.40
31677;DHT22;18385;51.572;6.578;2024-03-22T00:47:50;15.10;60.50
31677;DHT22;18385;51.572;6.578;2024-03-22T00:50:16;15.10;60.50
31677;DHT22;18385;51.572;6.578;2024-03-22T00:52:42;15.20;60.60
31677;DHT22;18385;51.572;6.578;2024-03-22T00:55:07;15.20;60.60
31677;DHT22;18385;51.572;6.578;2024-03-22T00:57:33;15.20;60.70
31677;DHT22;18385;51.572;6.578;2024-03-22T00:59:59;15.20;60.70
31677;DHT22;18385;51.572;6.578;2024-03-22T01:02:25;15.20;60.70
31677;DHT22;18385;51.572;6.578;2024-03-22T01:04:51;15.20;60.80
31677;DHT22;18385;51.572;6.578;2024-03-22T01:07:17;15.20;60.80
31677;DHT22;18385;51.572;6.578;2024-03-22T01:09:42;15.20;60.90
31677;DHT22;18385;51.572;6.578;2024-03-22T01:12:10;15.20;60.90
31677;DHT22;18385;51.572;6.578;2024-03-22T01:14:36;15.20;60.90
31677;DHT22;18385;51.572;6.578;2024-03-22T01:17:02;15.20;60.90
31677;DHT22;18385;51.572;6.578;2024-03-22T01:19:27;15.30;61.10
31677;DHT22;18385;51.572;6.578;2024-03-22T01:21:53;15.30;61.10
31677;DHT22;18385;51.572;6.578;2024-03-22T01:24:19;15.30;61.10
31677;DHT22;18385;51.572;6.578;2024-03-22T01:26:45;15.30;61.20
31677;DHT22;18385;51.572;6.578;2024-03-22T01:29:10;15.30;61.20
31677;DHT22;18385;51.572;6.578;2024-03-22T01:31:36;15.30;61.30
31677;DHT22;18385;51.572;6.578;2024-03-22T01:34:02;15.40;61.30
31677;DHT22;18385;51.572;6.578;2024-03-22T01:36:27;15.40;61.30
31677;DHT22;18385;51.572;6.578;2024-03-22T01:38:53;15.40;61.30
31677;DHT22;18385;51.572;6.578;2024-03-22T01:41:19;15.40;61.30
31677;DHT22;18385;51.572;6.578;2024-03-22T01:43:44;15.40;61.30
31677;DHT22;18385;51.572;6.578;2024-03-22T01:46:10;15.50;61.40
31677;DHT22;18385;51.572;6.578;2024-03-22T01:48:36;15.50;61.40
31677;DHT22;18385;51.572;6.578;2024-03-22T01:51:02;15.40;61.30
31677;DHT22;18385;51.572;6.578;2024-03-22T01:53:29;15.40;61.40
31677;DHT22;18385;51.572;6.578;2024-03-22T01:55:54;15.50;61.40
31677;DHT22;18385;51.572;6.578;2024-03-22T01:58:21;15.40;61.50
31677;DHT22;18385;51.572;6.578;2024-03-22T02:00:47;15.50;61.60
31677;DHT22;18385;51.572;6.578;2024-03-22T02:03:13;15.40;61.50
31677;DHT22;18385;51.572;6.578;2024-03-22T02:05:39;15.40;61.50
31677;DHT22;18385;51.572;6.578;2024-03-22T02:08:04;15.40;61.60
31677;DHT22;18385;51.572;6.578;2024-03-22T02:10:30;15.40;61.60
31677;DHT22;18385;51.572;6.578;2024-03-22T02:12:56;15.40;61.70
31677;DHT22;18385;51.572;6.578;2024-03-22T02:15:22;15.40;61.70
31677;DHT22;18385;51.572;6.578;2024-03-22T02:17:48;15.40;61.70
31677;DHT22;18385;51.572;6.578;2024-03-22T02:20:13;15.40;61.80
31677;DHT22;18385;51.572;6.578;2024-03-22T02:22:39;15.40;61.80
31677;DHT22;18385;51.572;6.578;2024-03-22T02:25:05;15.40;61.90
31677;DHT22;18385;51.572;6.578;2024-03-22T02:27:30;15.40;62.00
31677;DHT22;18385;51.572;6.578;2024-03-22T02:29:56;15.40;62.80
31677;DHT22;18385;51.572;6.578;2024-03-22T02:32:22;15.40;62.10
31677;DHT22;18385;51.572;6.578;2024-03-22T02:34:47;15.40;62.10
31677;DHT22;18385;51.572;6.578;2024-03-22T02:37:13;15.40;62.10
31677;DHT22;18385;51.572;6.578;2024-03-22T02:39:39;15.40;62.10
31677;DHT22;18385;51.572;6.578;2024-03-22T02:42:04;15.30;62.10
31677;DHT22;18385;51.572;6.578;2024-03-22T02:44:30;15.30;62.20
31677;DHT22;18385;51.572;6.578;2024-03-22T02:46:56;15.20;62.30
31677;DHT22;18385;51.572;6.578;2024-03-22T02:49:21;15.20;62.40
31677;DHT22;18385;51.572;6.578;2024-03-22T02:51:47;15.10;62.50
31677;DHT22;18385;51.572;6.578;2024-03-22T02:54:13;15.10;62.60
31677;DHT22;18385;51.572;6.578;2024-03-22T02:56:39;15.10;62.80
31677;DHT22;18385;51.572;6.578;2024-03-22T02:59:05;15.10;62.80
31677;DHT22;18385;51.572;6.578;2024-03-22T03:01:30;15.10;62.90
31677;DHT22;18385;51.572;6.578;2024-03-22T03:03:56;15.00;62.90
31677;DHT22;18385;51.572;6.578;2024-03-22T03:06:21;15.00;63.00
31677;DHT22;18385;51.572;6.578;2024-03-22T03:08:47;15.00;63.10
31677;DHT22;18385;51.572;6.578;2024-03-22T03:11:14;15.10;63.30
31677;DHT22;18385;51.572;6.578;2024-03-22T03:13:40;15.00;63.20
31677;DHT22;18385;51.572;6.578;2024-03-22T03:16:05;15.00;63.30
31677;DHT22;18385;51.572;6.578;2024-03-22T03:18:31;15.00;63.30
31677;DHT22;18385;51.572;6.578;2024-03-22T03:20:57;15.00;63.30
31677;DHT22;18385;51.572;6.578;2024-03-22T03:23:23;14.90;63.30
31677;DHT22;18385;51.572;6.578;2024-03-22T03:25:48;14.90;63.40
31677;DHT22;18385;51.572;6.578;2024-03-22T03:28:14;14.90;63.50
31677;DHT22;18385;51.572;6.578;2024-03-22T03:30:40;14.90;63.70
31677;DHT22;18385;51.572;6.578;2024-03-22T03:33:05;14.90;63.80
31677;DHT22;18385;51.572;6.578;2024-03-22T03:35:31;15.00;63.90
31677;DHT22;18385;51.572;6.578;2024-03-22T03:37:57;15.00;63.90
31677;DHT22;18385;51.572;6.578;2024-03-22T03:40:22;15.10;63.80
31677;DHT22;18385;51.572;6.578;2024-03-22T03:42:53;15.10;63.70
31677;DHT22;18385;51.572;6.578;2024-03-22T03:45:19;15.10;63.70
31677;DHT22;18385;51.572;6.578;2024-03-22T03:47:45;15.20;63.90
31677;DHT22;18385;51.572;6.578;2024-03-22T03:50:11;15.20;63.80
31677;DHT22;18385;51.572;6.578;2024-03-22T03:52:37;15.20;63.80
31677;DHT22;18385;51.572;6.578;2024-03-22T03:55:03;15.30;63.80
31677;DHT22;18385;51.572;6.578;2024-03-22T03:57:29;15.20;63.80
31677;DHT22;18385;51.572;6.578;2024-03-22T03:59:55;15.30;63.90
31677;DHT22;18385;51.572;6.578;2024-03-22T04:02:20;15.30;64.00
31677;DHT22;18385;51.572;6.578;2024-03-22T04:04:46;15.30;64.10
31677;DHT22;18385;51.572;6.578;2024-03-22T04:07:12;15.40;64.00
31677;DHT22;18385;51.572;6.578;2024-03-22T04:09:38;15.40;64.00
31677;DHT22;18385;51.572;6.578;2024-03-22T04:12:03;15.40;64.00
31677;DHT22;18385;51.572;6.578;2024-03-22T04:14:29;15.40;64.00
31677;DHT22;18385;51.572;6.578;2024-03-22T04:16:55;15.40;64.00
31677;DHT22;18385;51.572;6.578;2024-03-22T04:19:21;15.40;64.10
31677;DHT22;18385;51.572;6.578;2024-03-22T04:21:49;15.50;64.20
31677;DHT22;18385;51.572;6.578;2024-03-22T04:24:15;15.50;64.10
31677;DHT22;18385;51.572;6.578;2024-03-22T04:26:40;15.50;64.10
31677;DHT22;18385;51.572;6.578;2024-03-22T04:29:06;15.50;64.90
31677;DHT22;18385;51.572;6.578;2024-03-22T04:31:32;15.60;64.20
31677;DHT22;18385;51.572;6.578;2024-03-22T04:33:57;15.50;64.10
31677;DHT22;18385;51.572;6.578;2024-03-22T04:36:23;15.50;64.00
31677;DHT22;18385;51.572;6.578;2024-03-22T04:38:49;15.50;63.90
31677;DHT22;18385;51.572;6.578;2024-03-22T04:41:14;15.40;63.90
31677;DHT22;18385;51.572;6.578;2024-03-22T04:43:40;15.30;64.10
31677;DHT22;18385;51.572;6.578;2024-03-22T04:46:05;15.20;64.20
31677;DHT22;18385;51.572;6.578;2024-03-22T04:48:31;15.10;64.30
31677;DHT22;18385;51.572;6.578;2024-03-22T04:50:57;15.10;64.50
31677;DHT22;18385;51.572;6.578;2024-03-22T04:53:23;15.10;64.60
31677;DHT22;18385;51.572;6.578;2024-03-22T04:55:49;15.10;64.70
31677;DHT22;18385;51.572;6.578;2024-03-22T04:58:17;15.10;64.80
31677;DHT22;18385;51.572;6.578;2024-03-22T05:00:43;15.10;64.80
31677;DHT22;18385;51.572;6.578;2024-03-22T05:03:10;15.10;64.80
31677;DHT22;18385;51.572;6.578;2024-03-22T05:05:36;15.00;64.70
31677;DHT22;18385;51.572;6.578;2024-03-22T05:08:02;15.10;64.80
31677;DHT22;18385;51.572;6.578;2024-03-22T05:10:29;15.10;64.80
31677;DHT22;18385;51.572;6.578;2024-03-22T05:12:56;15.10;64.80
31677;DHT22;18385;51.572;6.578;2024-03-22T05:15:22;15.10;64.80
31677;DHT22;18385;51.572;6.578;2024-03-22T05:17:49;15.20;64.90
31677;DHT22;18385;51.572;6.578;2024-03-22T05:20:15;15.20;64.90
31677;DHT22;18385;51.572;6.578;2024-03-22T05:22:42;15.20;64.90
31677;DHT22;18385;51.572;6.578;2024-03-22T05:25:08;15.30;64.90
31677;DHT22;18385;51.572;6.578;2024-03-22T05:27:34;15.40;64.80
31677;DHT22;18385;51.572;6.578;2024-03-22T05:30:00;15.40;64.80
31677;DHT22;18385;51.572;6.578;2024-03-22T05:32:26;15.40;64.70
31677;DHT22;18385;51.572;6.578;2024-03-22T05:34:55;15.40;64.70
31677;DHT22;18385;51.572;6.578;2024-03-22T05:37:20;15.40;64.70
31677;DHT22;18385;51.572;6.578;2024-03-22T05:39:46;15.40;64.60
31677;DHT22;18385;51.572;6.578;2024-03-22T05:42:13;15.50;64.70
31677;DHT22;18385;51.572;6.578;2024-03-22T05:44:38;15.50;64.60
31677;DHT22;18385;51.572;6.578;2024-03-22T05:47:04;15.50;64.60
31677;DHT22;18385;51.572;6.578;2024-03-22T05:49:30;15.50;64.60
31677;DHT22;18385;51.572;6.578;2024-03-22T05:51:55;15.50;64.60
31677;DHT22;18385;51.572;6.578;2024-03-22T05:54:21;15.60;64.60
31677;DHT22;18385;51.572;6.578;2024-03-22T05:56:47;15.50;64.60
31677;DHT22;18385;51.572;6.578;2024-03-22T05:59:12;15.50;64.50
31677;DHT22;18385;51.572;6.578;2024-03-22T06:01:38;15.50;64.50
31677;DHT22;18385;51.572;6.578;2024-03-22T06:04:04;15.50;64.50
31677;DHT22;18385;51.572;6.578;2024-03-22T06:06:35;15.50;64.60
31677;DHT22;18385;51.572;6.578;2024-03-22T06:09:02;15.50;64.60
31677;DHT22;18385;51.572;6.578;2024-03-22T06:11:35;15.50;64.60
31677;DHT22;18385;51.572;6.578;2024-03-22T06:14:00;15.50;64.80
31677;DHT22;18385;51.572;6.578;2024-03-22T06:16:26;15.50;64.70
31677;DHT22;18385;51.572;6.578;2024-03-22T06:18:52;15.50;64.70
31677;DHT22;18385;51.572;6.578;2024-03-22T06:21:18;15.50;64.60
31677;DHT22;18385;51.572;6.578;2024-03-22T06:23:50;15.50;64.60
31677;DHT22;18385;51.572;6.578;2024-03-22T06:26:16;15.50;64.60
31677;DHT22;18385;51.572;6.578;2024-03-22T06:28:42;15.50;64.60
31677;DHT22;18385;51.572;6.578;2024-03-22T06:31:08;15.50;64.70
31677;DHT22;18385;51.572;6.578;2024-03-22T06:33:34;15.60;64.80
31677;DHT22;18385;51.572;6.578;2024-03-22T06:36:00;15.70;64.70
31677;DHT22;18385;51.572;6.578;2024-03-22T06:38:26;15.80;64.60
31677;DHT22;18385;51.572;6.578;2024-03-22T06:40:52;15.90;64.50
31677;DHT22;18385;51.572;6.578;2024-03-22T06:43:17;15.90;64.40
31677;DHT22;18385;51.572;6.578;2024-03-22T06:45:43;15.90;64.30
31677;DHT22;18385;51.572;6.578;2024-03-22T06:48:09;16.00;64.40
31677;DHT22;18385;51.572;6.578;2024-03-22T06:50:34;16.00;64.20
31677;DHT22;18385;51.572;6.578;2024-03-22T06:53:00;16.00;64.20
31677;DHT22;18385;51.572;6.578;2024-03-22T06:55:26;16.10;64.20
31677;DHT22;18385;51.572;6.578;2024-03-22T06:57:52;16.20;64.20
31677;DHT22;18385;51.572;6.578;2024-03-22T07:00:18;16.10;64.10
31677;DHT22;18385;51.572;6.578;2024-03-22T07:02:44;16.20;64.00
31677;DHT22;18385;51.572;6.578;2024-03-22T07:05:10;16.30;64.00
31677;DHT22;18385;51.572;6.578;2024-03-22T07:07:36;16.30;63.90
31677;DHT22;18385;51.572;6.578;2024-03-22T07:10:03;16.40;63.90
31677;DHT22;18385;51.572;6.578;2024-03-22T07:12:29;16.50;63.80
31677;DHT22;18385;51.572;6.578;2024-03-22T07:14:59;16.60;63.80
31677;DHT22;18385;51.572;6.578;2024-03-22T07:17:25;16.70;63.70
31677;DHT22;18385;51.572;6.578;2024-03-22T07:19:51;16.70;63.30
31677;DHT22;18385;51.572;6.578;2024-03-22T07:22:18;16.70;63.40
31677;DHT22;18385;51.572;6.578;2024-03-22T07:24:43;16.80;63.30
31677;DHT22;18385;51.572;6.578;2024-03-22T07:27:11;16.80;63.30
31677;DHT22;18385;51.572;6.578;2024-03-22T07:29:36;16.90;63.30
31677;DHT22;18385;51.572;6.578;2024-03-22T07:32:03;17.00;63.10
31677;DHT22;18385;51.572;6.578;2024-03-22T07:34:29;17.10;62.90
31677;DHT22;18385;51.572;6.578;2024-03-22T07:36:55;17.10;62.80
31677;DHT22;18385;51.572;6.578;2024-03-22T07:39:21;17.10;62.80
31677;DHT22;18385;51.572;6.578;2024-03-22T07:41:46;17.10;62.60
31677;DHT22;18385;51.572;6.578;2024-03-22T07:44:12;17.10;62.60
31677;DHT22;18385;51.572;6.578;2024-03-22T07:46:38;17.00;62.50
31677;DHT22;18385;51.572;6.578;2024-03-22T07:49:03;17.00;62.50
31677;DHT22;18385;51.572;6.578;2024-03-22T07:51:30;17.00;62.50
31677;DHT22;18385;51.572;6.578;2024-03-22T07:53:56;17.00;62.50
31677;DHT22;18385;51.572;6.578;2024-03-22T07:56:22;17.00;62.40
31677;DHT22;18385;51.572;6.578;2024-03-22T07:58:47;17.10;62.40
31677;DHT22;18385;51.572;6.578;2024-03-22T08:01:13;17.10;62.20
31677;DHT22;18385;51.572;6.578;2024-03-22T08:03:39;17.10;62.20
31677;DHT22;18385;51.572;6.578;2024-03-22T08:06:05;17.10;62.00
31677;DHT22;18385;51.572;6.578;2024-03-22T08:08:30;17.10;62.10
31677;DHT22;18385;51.572;6.578;2024-03-22T08:10:56;17.20;61.90
31677;DHT22;18385;51.572;6.578;2024-03-22T08:13:22;17.30;61.70
31677;DHT22;18385;51.572;6.578;2024-03-22T08:15:47;17.40;61.60
31677;DHT22;18385;51.572;6.578;2024-03-22T08:18:13;17.50;61.50
31677;DHT22;18385;51.572;6.578;2024-03-22T08:20:39;17.50;61.30
31677;DHT22;18385;51.572;6.578;2024-03-22T08:23:07;17.60;61.90
31677;DHT22;18385;51.572;6.578;2024-03-22T08:25:33;17.70;60.80
31677;DHT22;18385;51.572;6.578;2024-03-22T08:27:59;17.60;60.40
31677;DHT22;18385;51.572;6.578;2024-03-22T08:30:25;17.60;60.70
31677;DHT22;18385;51.572;6.578;2024-03-22T08:32:51;17.70;60.70
31677;DHT22;18385;51.572;6.578;2024-03-22T08:35:17;17.80;60.60
31677;DHT22;18385;51.572;6.578;2024-03-22T08:37:43;17.90;60.50
31677;DHT22;18385;51.572;6.578;2024-03-22T08:40:09;18.00;60.30
31677;DHT22;18385;51.572;6.578;2024-03-22T08:42:36;18.10;60.00
31677;DHT22;18385;51.572;6.578;2024-03-22T08:45:02;18.20;60.00
31677;DHT22;18385;51.572;6.578;2024-03-22T08:47:30;18.30;59.60
31677;DHT22;18385;51.572;6.578;2024-03-22T08:49:55;18.30;59.50
31677;DHT22;18385;51.572;6.578;2024-03-22T08:52:23;18.40;59.30
31677;DHT22;18385;51.572;6.578;2024-03-22T08:54:52;18.40;59.20
31677;DHT22;18385;51.572;6.578;2024-03-22T08:57:18;18.40;59.00
31677;DHT22;18385;51.572;6.578;2024-03-22T08:59:45;18.40;58.80
31677;DHT22;18385;51.572;6.578;2024-03-22T09:02:11;18.40;58.80
31677;DHT22;18385;51.572;6.578;2024-03-22T09:04:37;18.50;58.60
31677;DHT22;18385;51.572;6.578;2024-03-22T09:07:03;18.50;58.60
31677;DHT22;18385;51.572;6.578;2024-03-22T09:09:28;18.60;58.40
31677;DHT22;18385;51.572;6.578;2024-03-22T09:11:54;18.50;57.90
31677;DHT22;18385;51.572;6.578;2024-03-22T09:14:20;18.50;58.30
31677;DHT22;18385;51.572;6.578;2024-03-22T09:16:45;18.50;58.30
31677;DHT22;18385;51.572;6.578;2024-03-22T09:19:11;18.50;58.10
31677;DHT22;18385;51.572;6.578;2024-03-22T09:21:37;18.60;58.10
31677;DHT22;18385;51.572;6.578;2024-03-22T09:24:02;18.50;58.50
31677;DHT22;18385;51.572;6.578;2024-03-22T09:26:32;18.30;57.60
31677;DHT22;18385;51.572;6.578;2024-03-22T09:28:58;18.20;57.80
31677;DHT22;18385;51.572;6.578;2024-03-22T09:31:24;18.10;58.00
31677;DHT22;18385;51.572;6.578;2024-03-22T09:33:49;18.10;58.20
31677;DHT22;18385;51.572;6.578;2024-03-22T09:36:16;18.20;58.20
31677;DHT22;18385;51.572;6.578;2024-03-22T09:38:41;18.30;58.00
31677;DHT22;18385;51.572;6.578;2024-03-22T09:41:07;18.50;57.90
31677;DHT22;18385;51.572;6.578;2024-03-22T09:43:33;18.50;57.70
31677;DHT22;18385;51.572;6.578;2024-03-22T09:46:01;18.60;57.60
31677;DHT22;18385;51.572;6.578;2024-03-22T09:48:28;18.60;57.30
31677;DHT22;18385;51.572;6.578;2024-03-22T09:50:55;18.50;56.90
31677;DHT22;18385;51.572;6.578;2024-03-22T09:53:21;18.40;57.20
31677;DHT22;18385;51.572;6.578;2024-03-22T09:55:49;18.40;57.30
31677;DHT22;18385;51.572;6.578;2024-03-22T09:58:15;18.50;57.30
31677;DHT22;18385;51.572;6.578;2024-03-22T10:00:42;18.60;57.30
31677;DHT22;18385;51.572;6.578;2024-03-22T10:03:09;18.60;57.00
31677;DHT22;18385;51.572;6.578;2024-03-22T10:05:35;18.60;57.00
31677;DHT22;18385;51.572;6.578;2024-03-22T10:08:01;18.50;56.60
31677;DHT22;18385;51.572;6.578;2024-03-22T10:10:27;18.30;56.50
31677;DHT22;18385;51.572;6.578;2024-03-22T10:12:52;18.20;56.80
31677;DHT22;18385;51.572;6.578;2024-03-22T10:15:18;18.20;56.90
31677;DHT22;18385;51.572;6.578;2024-03-22T10:17:45;18.20;56.80
31677;DHT22;18385;51.572;6.578;2024-03-22T10:20:13;18.10;56.80
31677;DHT22;18385;51.572;6.578;2024-03-22T10:22:53;18.00;56.70
31677;DHT22;18385;51.572;6.578;2024-03-22T10:25:20;18.00;56.90
31677;DHT22;18385;51.572;6.578;2024-03-22T10:27:46;18.00;57.10
31677;DHT22;18385;51.572;6.578;2024-03-22T10:30:15;18.10;57.10
31677;DHT22;18385;51.572;6.578;2024-03-22T10:32:42;18.30;57.00
31677;DHT22;18385;51.572;6.578;2024-03-22T10:35:12;18.30;56.70
31677;DHT22;18385;51.572;6.578;2024-03-22T10:37:40;18.30;56.50
31677;DHT22;18385;51.572;6.578;2024-03-22T10:40:06;18.30;56.50
31677;DHT22;18385;51.572;6.578;2024-03-22T10:42:36;18.30;56.50
31677;DHT22;18385;51.572;6.578;2024-03-22T10:45:04;18.40;56.70
31677;DHT22;18385;51.572;6.578;2024-03-22T10:47:31;18.30;56.10
31677;DHT22;18385;51.572;6.578;2024-03-22T10:52:51;18.40;56.30
31677;DHT22;18385;51.572;6.578;2024-03-22T10:55:27;18.40;56.10
31677;DHT22;18385;51.572;6.578;2024-03-22T10:57:57;18.30;56.00
31677;DHT22;18385;51.572;6.578;2024-03-22T11:00:34;18.20;56.20
31677;DHT22;18385;51.572;6.578;2024-03-22T11:03:04;18.20;56.10
31677;DHT22;18385;51.572;6.578;2024-03-22T11:05:30;18.10;56.30
31677;DHT22;18385;51.572;6.578;2024-03-22T11:08:25;18.10;56.10
31677;DHT22;18385;51.572;6.578;2024-03-22T11:10:52;18.20;56.20
31677;DHT22;18385;51.572;6.578;2024-03-22T11:13:18;18.10;56.10
31677;DHT22;18385;51.572;6.578;2024-03-22T11:15:44;18.10;56.20
31677;DHT22;18385;51.572;6.578;2024-03-22T11:18:12;18.10;56.20
31677;DHT22;18385;51.572;6.578;2024-03-22T11:20:37;18.10;56.10
31677;DHT22;18385;51.572;6.578;2024-03-22T11:23:04;18.00;56.00
31677;DHT22;18385;51.572;6.578;2024-03-22T11:25:35;17.90;56.00
31677;DHT22;18385;51.572;6.578;2024-03-22T11:28:01;17.70;56.70
31677;DHT22;18385;51.572;6.578;2024-03-22T11:30:32;17.60;56.20
31677;DHT22;18385;51.572;6.578;2024-03-22T11:33:01;17.40;56.30
31677;DHT22;18385;51.572;6.578;2024-03-22T11:35:27;17.40;56.50
31677;DHT22;18385;51.572;6.578;2024-03-22T11:37:53;17.40;56.60
31677;DHT22;18385;51.572;6.578;2024-03-22T11:40:19;17.30;56.40
31677;DHT22;18385;51.572;6.578;2024-03-22T11:42:47;17.30;56.50
31677;DHT22;18385;51.572;6.578;2024-03-22T11:45:16;17.20;56.40
31677;DHT22;18385;51.572;6.578;2024-03-22T11:47:44;17.10;56.40
31677;DHT22;18385;51.572;6.578;2024-03-22T11:50:12;17.10;56.50
31677;DHT22;18385;51.572;6.578;2024-03-22T11:52:40;17.00;56.50
31677;DHT22;18385;51.572;6.578;2024-03-22T11:55:06;16.90;56.60
31677;DHT22;18385;51.572;6.578;2024-03-22T11:57:32;16.90;56.70
31677;DHT22;18385;51.572;6.578;2024-03-22T12:00:02;16.90;56.80
31677;DHT22;18385;51.572;6.578;2024-03-22T12:02:37;16.90;56.70
31677;DHT22;18385;51.572;6.578;2024-03-22T12:05:04;16.90;56.60
31677;DHT22;18385;51.572;6.578;2024-03-22T12:07:30;16.90;56.70
31677;DHT22;18385;51.572;6.578;2024-03-22T12:09:56;16.90;56.70
31677;DHT22;18385;51.572;6.578;2024-03-22T12:12:22;16.90;56.60
31677;DHT22;18385;51.572;6.578;2024-03-22T12:14:50;16.80;56.70
31677;DHT22;18385;51.572;6.578;2024-03-22T12:17:16;16.80;57.50
31677;DHT22;18385;51.572;6.578;2024-03-22T12:19:42;16.80;56.80
31677;DHT22;18385;51.572;6.578;2024-03-22T12:22:08;16.80;56.80
31677;DHT22;18385;51.572;6.578;2024-03-22T12:24:34;16.90;56.90
31677;DHT22;18385;51.572;6.578;2024-03-22T12:26:59;16.90;56.90
31677;DHT22;18385;51.572;6.578;2024-03-22T12:29:25;16.80;56.80
31677;DHT22;18385;51.572;6.578;2024-03-22T12:31:51;16.70;56.80
31677;DHT22;18385;51.572;6.578;2024-03-22T12:34:17;16.70;57.10
31677;DHT22;18385;51.572;6.578;2024-03-22T12:36:43;16.70;57.00
31677;DHT22;18385;51.572;6.578;2024-03-22T12:39:08;16.70;57.00
31677;DHT22;18385;51.572;6.578;2024-03-22T12:41:34;16.70;57.10
31677;DHT22;18385;51.572;6.578;2024-03-22T12:44:01;16.70;57.00
31677;DHT22;18385;51.572;6.578;2024-03-22T12:46:27;16.80;57.20
31677;DHT22;18385;51.572;6.578;2024-03-22T12:48:55;16.70;57.00
31677;DHT22;18385;51.572;6.578;2024-03-22T12:51:21;16.60;57.10
31677;DHT22;18385;51.572;6.578;2024-03-22T12:53:47;16.70;57.40
31677;DHT22;18385;51.572;6.578;2024-03-22T12:56:13;16.70;57.40
31677;DHT22;18385;51.572;6.578;2024-03-22T12:58:39;16.70;57.20
31677;DHT22;18385;51.572;6.578;2024-03-22T13:01:05;16.70;57.30
31677;DHT22;18385;51.572;6.578;2024-03-22T13:03:33;16.70;57.30
31677;DHT22;18385;51.572;6.578;2024-03-22T13:05:59;16.80;57.60
31677;DHT22;18385;51.572;6.578;2024-03-22T13:08:25;16.80;57.40
31677;DHT22;18385;51.572;6.578;2024-03-22T13:10:50;16.80;57.30
31677;DHT22;18385;51.572;6.578;2024-03-22T13:13:18;16.80;57.30
31677;DHT22;18385;51.572;6.578;2024-03-22T13:15:43;16.70;57.70
31677;DHT22;18385;51.572;6.578;2024-03-22T13:18:09;16.70;57.50
31677;DHT22;18385;51.572;6.578;2024-03-22T13:20:35;16.80;57.60
31677;DHT22;18385;51.572;6.578;2024-03-22T13:23:01;16.80;57.50
31677;DHT22;18385;51.572;6.578;2024-03-22T13:25:27;16.70;57.40
31677;DHT22;18385;51.572;6.578;2024-03-22T13:27:53;16.80;57.50
31677;DHT22;18385;51.572;6.578;2024-03-22T13:30:19;16.80;57.40
31677;DHT22;18385;51.572;6.578;2024-03-22T13:32:45;16.80;57.50
31677;DHT22;18385;51.572;6.578;2024-03-22T13:35:11;16.70;58.00
31677;DHT22;18385;51.572;6.578;2024-03-22T13:37:37;16.60;57.30
31677;DHT22;18385;51.572;6.578;2024-03-22T13:40:02;16.60;57.70
31677;DHT22;18385;51.572;6.578;2024-03-22T13:42:28;16.50;57.40
31677;DHT22;18385;51.572;6.578;2024-03-22T13:44:55;16.50;57.60
31677;DHT22;18385;51.572;6.578;2024-03-22T13:47:22;16.50;57.60
31677;DHT22;18385;51.572;6.578;2024-03-22T13:49:48;16.50;57.70
31677;DHT22;18385;51.572;6.578;2024-03-22T13:52:13;16.50;57.60
31677;DHT22;18385;51.572;6.578;2024-03-22T13:54:40;16.60;57.90
31677;DHT22;18385;51.572;6.578;2024-03-22T13:57:05;16.50;57.70
31677;DHT22;18385;51.572;6.578;2024-03-22T13:59:31;16.50;57.80
31677;DHT22;18385;51.572;6.578;2024-03-22T14:01:57;16.40;57.90
31677;DHT22;18385;51.572;6.578;2024-03-22T14:04:23;16.30;57.80
31677;DHT22;18385;51.572;6.578;2024-03-22T14:06:51;16.20;57.80
31677;DHT22;18385;51.572;6.578;2024-03-22T14:09:17;16.20;57.80
31677;DHT22;18385;51.572;6.578;2024-03-22T14:11:42;16.10;57.80
31677;DHT22;18385;51.572;6.578;2024-03-22T14:14:11;16.00;57.80
31677;DHT22;18385;51.572;6.578;2024-03-22T14:16:41;15.80;57.90
31677;DHT22;18385;51.572;6.578;2024-03-22T14:19:07;15.60;58.20
31677;DHT22;18385;51.572;6.578;2024-03-22T14:21:32;15.40;58.60
31677;DHT22;18385;51.572;6.578;2024-03-22T14:23:58;15.20;58.90
31677;DHT22;18385;51.572;6.578;2024-03-22T14:26:24;15.00;59.20
31677;DHT22;18385;51.572;6.578;2024-03-22T14:28:49;14.90;59.70
31677;DHT22;18385;51.572;6.578;2024-03-22T14:31:16;14.90;60.00
31677;DHT22;18385;51.572;6.578;2024-03-22T14:33:42;14.90;60.10
31677;DHT22;18385;51.572;6.578;2024-03-22T14:36:08;14.90;60.10
31677;DHT22;18385;51.572;6.578;2024-03-22T14:38:35;14.80;60.30
31677;DHT22;18385;51.572;6.578;2024-03-22T14:41:03;14.80;60.50
31677;DHT22;18385;51.572;6.578;2024-03-22T14:43:29;14.80;60.70
31677;DHT22;18385;51.572;6.578;2024-03-22T14:45:57;14.80;60.80
31677;DHT22;18385;51.572;6.578;2024-03-22T14:48:23;14.80;60.90
31677;DHT22;18385;51.572;6.578;2024-03-22T14:50:50;14.80;61.80
31677;DHT22;18385;51.572;6.578;2024-03-22T14:53:16;14.80;61.20
31677;DHT22;18385;51.572;6.578;2024-03-22T14:55:53;14.80;61.20
31677;DHT22;18385;51.572;6.578;2024-03-22T14:58:20;14.90;61.50
31677;DHT22;18385;51.572;6.578;2024-03-22T15:00:57;15.00;61.60
31677;DHT22;18385;51.572;6.578;2024-03-22T15:03:23;15.10;61.90
31677;DHT22;18385;51.572;6.578;2024-03-22T15:05:54;15.20;61.60
31677;DHT22;18385;51.572;6.578;2024-03-22T15:08:21;15.30;61.60
31677;DHT22;18385;51.572;6.578;2024-03-22T15:10:47;15.40;61.50
31677;DHT22;18385;51.572;6.578;2024-03-22T15:13:15;15.50;62.40
31677;DHT22;18385;51.572;6.578;2024-03-22T15:15:41;15.50;61.60
31677;DHT22;18385;51.572;6.578;2024-03-22T15:18:07;15.60;61.60
31677;DHT22;18385;51.572;6.578;2024-03-22T15:20:33;15.60;61.40
31677;DHT22;18385;51.572;6.578;2024-03-22T15:23:00;15.70;61.40
31677;DHT22;18385;51.572;6.578;2024-03-22T15:25:26;15.50;61.50
31677;DHT22;18385;51.572;6.578;2024-03-22T15:27:52;15.40;61.60